Time;durP1;ratioP1;P1;durP2;ratioP2;P2;SDS_P1;SDS_P2;PMS_P1;PMS_P2;Temp;Humidity;BMP_temperature;BMP_pressure;BME280_temperature;BME280_humidity;BME280_pressure;Samples;Min_cycle;Max_cycle;Signal;HPM_P1;HPM_P2
2022/03/12 00:00:07;;;;;;;1.35;0.85;;;7.20;76.90;;;;;;5047470;28;20104;-89
2022/03/12 00:02:34;;;;;;;0.50;0.50;;;7.20;77.10;;;;;;5040705;28;20048;-88
2022/03/12 00:05:00;;;;;;;0.73;0.65;;;7.20;77.10;;;;;;5036475;28;20037;-88
2022/03/12 00:07:27;;;;;;;1.48;1.15;;;7.20;76.70;;;;;;5018002;28;20045;-88
2022/03/12 00:09:54;;;;;;;0.75;0.57;;;7.20;76.20;;;;;;5013351;28;20034;-88
2022/03/12 00:12:20;;;;;;;4.60;3.90;;;7.90;77.00;;;;;;5016724;28;20045;-88
2022/03/12 00:14:48;;;;;;;1.02;0.68;;;7.60;76.70;;;;;;5009447;28;20034;-89
2022/03/12 00:17:15;;;;;;;0.65;0.63;;;7.60;77.10;;;;;;5047530;28;20087;-88
2022/03/12 00:19:42;;;;;;;0.30;0.30;;;7.20;77.00;;;;;;5035391;28;20047;-88
2022/03/12 00:22:09;;;;;;;3.95;2.70;;;7.10;77.50;;;;;;5022511;28;20052;-88
2022/03/12 00:24:38;;;;;;;1.85;1.67;;;7.60;77.60;;;;;;5009515;28;20038;-89
2022/03/12 00:27:06;;;;;;;1.20;1.10;;;7.10;77.00;;;;;;5021951;28;20038;-88
2022/03/12 00:29:32;;;;;;;0.82;0.73;;;7.10;77.30;;;;;;5014167;28;20029;-88
2022/03/12 00:31:58;;;;;;;2.40;2.15;;;7.00;77.20;;;;;;5043811;28;20057;-89
2022/03/12 00:34:23;;;;;;;1.42;0.95;;;7.00;77.10;;;;;;5050300;28;20445;-88
2022/03/12 00:36:49;;;;;;;18.10;1.25;;;7.00;77.50;;;;;;5009529;28;20083;-89
2022/03/12 00:39:15;;;;;;;5.32;3.10;;;7.00;77.70;;;;;;5011624;28;20041;-89
2022/03/12 00:41:44;;;;;;;0.68;0.63;;;7.00;77.30;;;;;;5008016;28;20038;-89
2022/03/12 00:44:18;;;;;;;2.20;1.75;;;7.00;77.70;;;;;;5012041;28;20044;-88
2022/03/12 00:46:45;;;;;;;3.83;1.58;;;7.00;77.50;;;;;;5012074;28;20047;-88
2022/03/12 00:49:10;;;;;;;1.75;1.10;;;7.00;77.70;;;;;;5044055;28;20029;-88
2022/03/12 00:51:38;;;;;;;2.22;1.33;;;7.00;77.40;;;;;;5016229;28;20041;-88
2022/03/12 00:54:10;;;;;;;2.92;2.20;;;7.00;78.20;;;;;;5029536;28;20038;-88
2022/03/12 00:56:39;;;;;;;0.50;0.50;;;7.00;77.70;;;;;;5016018;28;20041;-89
2022/03/12 00:59:05;;;;;;;1.00;0.85;;;7.80;78.80;;;;;;5011981;28;20045;-88
2022/03/12 01:01:31;;;;;;;1.05;0.82;;;6.90;78.10;;;;;;5021443;28;20120;-88
2022/03/12 01:03:57;;;;;;;0.25;0.25;;;7.90;78.50;;;;;;5050509;28;20091;-87
2022/03/12 01:06:29;;;;;;;2.25;1.27;;;6.90;77.70;;;;;;5025230;28;20120;-88
2022/03/12 01:08:54;;;;;;;1.65;1.50;;;6.90;78.70;;;;;;5044724;28;20425;-87
2022/03/12 01:11:20;;;;;;;1.48;1.15;;;7.50;78.70;;;;;;5049819;28;20096;-88
2022/03/12 01:13:46;;;;;;;2.95;1.45;;;6.90;78.10;;;;;;5023581;28;20184;-88
2022/03/12 01:16:11;;;;;;;3.15;1.63;;;6.80;78.30;;;;;;5045556;28;20044;-88
2022/03/12 01:18:39;;;;;;;2.05;1.48;;;6.80;78.20;;;;;;5045487;28;20034;-88
2022/03/12 01:21:16;;;;;;;1.52;1.15;;;6.80;78.50;;;;;;5038598;28;20033;-88
2022/03/12 01:23:43;;;;;;;0.93;0.73;;;6.80;78.50;;;;;;5033481;28;20041;-88
2022/03/12 01:26:10;;;;;;;0.32;0.32;;;7.20;79.00;;;;;;5020182;28;20065;-88
2022/03/12 01:28:37;;;;;;;1.65;1.17;;;6.70;79.30;;;;;;5020107;28;20073;-88
2022/03/12 01:31:03;;;;;;;1.38;1.20;;;6.70;79.20;;;;;;5018190;28;20079;-88
2022/03/12 01:33:29;;;;;;;0.60;0.60;;;6.70;79.00;;;;;;5021627;28;20041;-88
2022/03/12 01:35:55;;;;;;;0.57;0.57;;;6.60;79.30;;;;;;5043826;28;20506;-89
2022/03/12 01:38:34;;;;;;;1.52;1.20;;;6.60;79.20;;;;;;5050404;28;20037;-88
2022/03/12 01:41:02;;;;;;;0.63;0.55;;;6.70;78.20;;;;;;5026202;28;20034;-88
2022/03/12 01:43:31;;;;;;;0.60;0.60;;;6.70;78.60;;;;;;5016597;28;20041;-88
2022/03/12 01:46:00;;;;;;;0.43;0.35;;;6.60;79.20;;;;;;5013274;28;20045;-88
2022/03/12 01:48:26;;;;;;;2.20;2.00;;;6.60;78.80;;;;;;5045905;28;20495;-88
2022/03/12 01:50:52;;;;;;;1.52;1.08;;;6.60;79.30;;;;;;5017571;28;20037;-88
2022/03/12 01:53:18;;;;;;;0.50;0.50;;;6.60;79.60;;;;;;5017284;28;20034;-87
2022/03/12 01:55:43;;;;;;;1.85;1.25;;;6.60;79.70;;;;;;5002132;28;20088;-88
2022/03/12 01:58:10;;;;;;;2.00;1.80;;;6.70;78.80;;;;;;5047294;28;20037;-88
2022/03/12 02:00:47;;;;;;;2.25;1.30;;;6.70;78.80;;;;;;5029246;28;20046;-88
2022/03/12 02:03:23;;;;;;;1.02;1.02;;;6.70;78.50;;;;;;5025507;28;20124;-88
2022/03/12 02:05:50;;;;;;;1.08;0.82;;;6.70;79.20;;;;;;5068019;28;20049;-87
2022/03/12 02:08:16;;;;;;;11.40;3.03;;;6.70;78.10;;;;;;5015471;28;20119;-88
2022/03/12 02:10:43;;;;;;;1.65;1.10;;;7.50;79.40;;;;;;5046147;28;20029;-87
2022/03/12 02:13:10;;;;;;;1.58;1.35;;;6.80;79.00;;;;;;5042613;28;20038;-89
2022/03/12 02:15:36;;;;;;;0.75;0.75;;;7.40;79.00;;;;;;5035300;28;20135;-87
2022/03/12 02:18:02;;;;;;;0.50;0.50;;;6.80;78.30;;;;;;5042225;28;20045;-88
2022/03/12 02:20:28;;;;;;;1.35;0.82;;;6.80;78.30;;;;;;5058246;28;20044;-87
2022/03/12 02:22:55;;;;;;;0.75;0.75;;;6.80;78.30;;;;;;5041438;28;20041;-88
2022/03/12 02:25:30;;;;;;;3.15;2.47;;;6.80;78.10;;;;;;5027120;28;20037;-87
2022/03/12 02:27:56;;;;;;;1.50;1.23;;;6.80;77.90;;;;;;5021517;28;20046;-88
2022/03/12 02:30:26;;;;;;;1.55;1.15;;;6.80;77.80;;;;;;5021456;28;20080;-88
2022/03/12 02:32:54;;;;;;;2.05;1.67;;;6.80;77.70;;;;;;5038619;28;20040;-88
2022/03/12 02:35:24;;;;;;;0.30;0.30;;;6.80;77.80;;;;;;5022298;28;20544;-88
2022/03/12 02:37:52;;;;;;;8.90;2.55;;;6.80;78.40;;;;;;5022444;28;20037;-89
2022/03/12 02:40:18;;;;;;;1.35;1.25;;;6.80;78.00;;;;;;5022122;28;20038;-89
2022/03/12 02:42:44;;;;;;;1.05;0.95;;;6.80;77.90;;;;;;5022227;28;20048;-88
2022/03/12 02:45:10;;;;;;;0.43;0.43;;;6.80;78.20;;;;;;5022064;28;20038;-89
2022/03/12 02:47:40;;;;;;;2.05;1.55;;;6.80;78.10;;;;;;5005720;28;20048;-88
2022/03/12 02:50:08;;;;;;;0.88;0.80;;;6.80;78.20;;;;;;5021977;28;20037;-89
2022/03/12 02:52:41;;;;;;;2.90;1.83;;;6.80;78.30;;;;;;5055518;28;20038;-89
2022/03/12 02:55:12;;;;;;;1.52;1.00;;;6.80;78.10;;;;;;5054890;28;20041;-89
2022/03/12 02:57:40;;;;;;;0.98;0.80;;;6.80;77.60;;;;;;5038764;28;20132;-88
2022/03/12 03:00:08;;;;;;;1.77;1.45;;;6.90;77.00;;;;;;5054730;28;20037;-89
2022/03/12 03:02:41;;;;;;;1.27;0.85;;;6.90;76.90;;;;;;5054798;28;20042;-89
2022/03/12 03:05:33;;;;;;;1.75;1.17;;;6.90;77.10;;;;;;5038989;28;20505;-89
2022/03/12 03:08:03;;;;;;;1.30;0.70;;;6.90;77.80;;;;;;5055250;28;20144;-89
2022/03/12 03:10:35;;;;;;;0.98;0.75;;;6.90;78.30;;;;;;5055196;28;20075;-89
2022/03/12 03:13:31;;;;;;;1.55;1.35;;;6.90;77.40;;;;;;5038781;28;20167;-89
2022/03/12 03:16:22;;;;;;;1.85;1.27;;;6.90;78.00;;;;;;5031640;28;20041;-88
2022/03/12 03:18:53;;;;;;;0.90;0.82;;;6.90;78.00;;;;;;5021470;28;20127;-89
2022/03/12 03:21:23;;;;;;;6.95;1.67;;;6.90;78.50;;;;;;5038712;28;20033;-89
2022/03/12 03:23:49;;;;;;;1.95;1.30;;;6.90;78.70;;;;;;5022260;28;20033;-88
2022/03/12 03:26:38;;;;;;;3.45;1.85;;;6.90;79.10;;;;;;5021552;28;20103;-89
2022/03/12 03:29:04;;;;;;;0.90;0.50;;;6.90;78.00;;;;;;5021661;28;20041;-90
2022/03/12 03:31:30;;;;;;;0.60;0.52;;;7.50;78.30;;;;;;5021261;28;20092;-89
2022/03/12 03:33:56;;;;;;;2.63;1.25;;;7.80;78.80;;;;;;5021741;28;20045;-90
2022/03/12 03:36:21;;;;;;;1.15;1.05;;;6.90;78.80;;;;;;5070446;28;20502;-88
2022/03/12 03:38:47;;;;;;;6.13;2.42;;;6.90;78.70;;;;;;5020563;28;20041;-87
2022/03/12 03:41:12;;;;;;;0.77;0.77;;;6.90;79.40;;;;;;5053687;28;20052;-88
2022/03/12 03:43:38;;;;;;;2.80;1.55;;;6.80;79.20;;;;;;5020496;28;20048;-89
2022/03/12 03:46:04;;;;;;;1.10;1.00;;;6.90;79.10;;;;;;5020616;28;20037;-88
2022/03/12 03:48:37;;;;;;;1.27;0.73;;;6.80;79.30;;;;;;5021026;28;20072;-89
2022/03/12 03:51:03;;;;;;;1.95;1.40;;;6.80;79.00;;;;;;5021051;28;20037;-89
2022/03/12 03:53:28;;;;;;;2.28;1.40;;;6.80;79.40;;;;;;5020794;28;20087;-88
2022/03/12 03:55:58;;;;;;;1.02;0.50;;;6.80;79.20;;;;;;5020865;28;20033;-87
2022/03/12 03:58:25;;;;;;;1.30;0.90;;;6.80;79.70;;;;;;5037114;28;20065;-88
2022/03/12 04:01:00;;;;;;;2.63;1.50;;;6.80;80.00;;;;;;5020796;28;20033;-89
2022/03/12 04:03:32;;;;;;;1.50;0.85;;;6.70;80.00;;;;;;5054003;28;20514;-89
2022/03/12 04:06:00;;;;;;;3.13;1.15;;;6.70;80.90;;;;;;5053982;28;20486;-89
2022/03/12 04:08:25;;;;;;;0.88;0.82;;;7.10;81.70;;;;;;5037401;28;20391;-89
2022/03/12 04:10:51;;;;;;;1.58;1.02;;;6.60;81.70;;;;;;5020760;28;20044;-87
2022/03/12 04:13:19;;;;;;;0.93;0.77;;;6.60;82.50;;;;;;5021380;28;20057;-89
2022/03/12 04:15:45;;;;;;;1.38;1.10;;;6.60;83.50;;;;;;5053294;28;20072;-89
2022/03/12 04:18:12;;;;;;;4.47;1.55;;;6.60;82.90;;;;;;5053000;28;20494;-89
2022/03/12 04:20:38;;;;;;;1.95;1.20;;;6.50;83.10;;;;;;5052998;28;20037;-89
2022/03/12 04:23:04;;;;;;;0.80;0.80;;;6.50;84.00;;;;;;5057801;28;20057;-89
2022/03/12 04:25:31;;;;;;;0.50;0.50;;;6.50;83.70;;;;;;5000439;28;20046;-89
2022/03/12 04:27:57;;;;;;;1.20;1.02;;;6.50;84.80;;;;;;5000703;28;20065;-88
2022/03/12 04:30:23;;;;;;;1.25;0.55;;;6.50;84.20;;;;;;5016344;28;20034;-89
2022/03/12 04:32:49;;;;;;;1.58;0.88;;;6.50;84.50;;;;;;5033311;28;20453;-89
2022/03/12 04:35:19;;;;;;;1.75;1.15;;;6.40;84.40;;;;;;5017166;28;20081;-90
2022/03/12 04:37:45;;;;;;;1.58;0.63;;;6.50;84.20;;;;;;5000392;28;20042;-88
2022/03/12 04:40:16;;;;;;;0.60;0.55;;;6.50;84.80;;;;;;5033495;28;20044;-89
2022/03/12 04:42:44;;;;;;;2.85;1.58;;;6.50;84.10;;;;;;5017311;28;20042;-88
2022/03/12 04:45:17;;;;;;;1.15;0.90;;;6.40;84.90;;;;;;5001314;28;20125;-88
2022/03/12 04:47:44;;;;;;;3.97;1.90;;;6.40;84.50;;;;;;5033757;28;20487;-89
2022/03/12 04:50:12;;;;;;;0.47;0.30;;;6.50;85.40;;;;;;5017639;28;20034;-88
2022/03/12 04:52:38;;;;;;;1.50;1.20;;;6.40;84.90;;;;;;5040114;28;20040;-88
2022/03/12 04:55:12;;;;;;;0.90;0.77;;;6.50;85.10;;;;;;5020461;28;20067;-88
2022/03/12 04:57:39;;;;;;;0.45;0.45;;;6.40;84.60;;;;;;5020128;28;20091;-89
2022/03/12 05:00:06;;;;;;;0.40;0.40;;;7.20;85.20;;;;;;5020622;28;20037;-89
2022/03/12 05:02:32;;;;;;;1.73;1.25;;;6.50;86.50;;;;;;5020580;28;20491;-89
2022/03/12 05:04:58;;;;;;;1.08;0.88;;;6.40;86.20;;;;;;5020139;28;20086;-88
2022/03/12 05:07:26;;;;;;;1.15;1.05;;;6.40;87.90;;;;;;5019496;28;20041;-89
2022/03/12 05:09:55;;;;;;;1.40;1.10;;;6.40;88.30;;;;;;5021553;28;20494;-88
2022/03/12 05:12:40;;;;;;;3.00;2.80;;;6.30;89.40;;;;;;5037347;28;20040;-90
2022/03/12 05:15:11;;;;;;;0.70;0.70;;;6.30;90.10;;;;;;5021112;28;20509;-90
2022/03/12 05:17:46;;;;;;;0.77;0.63;;;6.20;89.90;;;;;;5069709;28;20502;-89
2022/03/12 05:20:18;;;;;;;1.08;0.90;;;6.20;89.80;;;;;;5037187;28;20500;-88
2022/03/12 05:22:44;;;;;;;0.85;0.60;;;6.20;89.60;;;;;;5053862;28;20132;-89
2022/03/12 05:25:10;;;;;;;1.75;0.85;;;7.70;90.20;;;;;;5053563;28;20037;-88
2022/03/12 05:27:36;;;;;;;0.68;0.40;;;6.30;88.90;;;;;;5053436;28;20048;-88
2022/03/12 05:30:03;;;;;;;1.55;1.05;;;6.30;90.20;;;;;;5020943;28;20406;-89
2022/03/12 05:32:29;;;;;;;2.47;1.27;;;6.20;90.70;;;;;;5053588;28;20065;-90
2022/03/12 05:34:54;;;;;;;0.30;0.30;;;6.80;89.50;;;;;;5020541;28;20052;-89
2022/03/12 05:37:20;;;;;;;1.80;1.65;;;6.30;89.30;;;;;;5003754;28;20083;-88
2022/03/12 05:39:48;;;;;;;1.48;1.02;;;6.30;89.50;;;;;;5020472;28;20092;-89
2022/03/12 05:42:17;;;;;;;0.63;0.63;;;7.10;89.70;;;;;;5020108;28;20041;-89
2022/03/12 05:44:44;;;;;;;1.33;1.05;;;6.80;88.50;;;;;;5023467;28;20482;-89
2022/03/12 05:47:10;;;;;;;3.22;2.20;;;6.40;88.00;;;;;;5023430;28;20088;-89
2022/03/12 05:49:36;;;;;;;20.15;2.25;;;6.40;88.70;;;;;;5023661;28;20124;-89
2022/03/12 05:52:03;;;;;;;1.95;1.15;;;7.40;88.10;;;;;;5024200;28;20075;-89
2022/03/12 05:54:28;;;;;;;0.50;0.47;;;6.50;89.50;;;;;;5023859;28;20060;-89
2022/03/12 05:56:55;;;;;;;3.13;1.40;;;6.50;87.80;;;;;;5023521;28;20037;-88
2022/03/12 05:59:20;;;;;;;0.60;0.60;;;6.50;88.30;;;;;;5024307;28;20040;-89
2022/03/12 06:01:46;;;;;;;2.75;2.40;;;6.90;88.40;;;;;;5024927;28;20033;-89
2022/03/12 06:04:12;;;;;;;5.65;2.03;;;6.50;88.30;;;;;;5024894;28;20029;-90
2022/03/12 06:06:38;;;;;;;0.98;0.93;;;6.50;87.70;;;;;;5024187;28;20649;-89
2022/03/12 06:09:07;;;;;;;0.55;0.55;;;6.50;87.50;;;;;;5024665;28;20494;-89
2022/03/12 06:11:34;;;;;;;1.27;1.17;;;6.50;88.50;;;;;;5041072;28;20030;-89
2022/03/12 06:14:00;;;;;;;1.02;0.93;;;6.50;88.40;;;;;;5043562;28;20041;-89
2022/03/12 06:16:26;;;;;;;1.83;1.52;;;6.60;87.10;;;;;;5004959;28;20121;-89
2022/03/12 06:18:53;;;;;;;2.20;1.10;;;6.50;87.20;;;;;;5004254;28;20046;-89
2022/03/12 06:21:21;;;;;;;0.90;0.90;;;6.50;87.60;;;;;;5020669;28;20073;-88
2022/03/12 06:23:47;;;;;;;1.45;0.98;;;6.50;87.20;;;;;;5004760;28;20042;-88
2022/03/12 06:26:17;;;;;;;0.75;0.68;;;6.40;87.70;;;;;;5007608;28;20033;-88
2022/03/12 06:28:44;;;;;;;0.40;0.40;;;6.70;87.00;;;;;;5040520;28;20041;-88
2022/03/12 06:31:12;;;;;;;0.60;0.60;;;6.40;87.50;;;;;;5023667;28;20391;-88
2022/03/12 06:33:40;;;;;;;2.05;1.85;;;6.40;87.50;;;;;;5024254;28;20475;-89
2022/03/12 06:36:14;;;;;;;1.20;1.10;;;6.30;87.60;;;;;;5023433;28;20049;-89
2022/03/12 06:38:40;;;;;;;1.08;0.93;;;6.30;87.80;;;;;;5023832;28;20112;-88
2022/03/12 06:41:05;;;;;;;2.83;0.95;;;7.20;89.00;;;;;;5006595;28;20065;-88
2022/03/12 06:43:33;;;;;;;0.43;0.43;;;6.10;88.90;;;;;;5022639;28;20041;-87
2022/03/12 06:46:01;;;;;;;2.03;1.42;;;6.00;88.80;;;;;;5056080;28;20053;-88
2022/03/12 06:48:31;;;;;;;11.35;4.13;;;6.00;89.30;;;;;;5043436;28;20123;-89
2022/03/12 06:50:58;;;;;;;0.70;0.70;;;5.90;89.90;;;;;;5005845;28;20038;-89
2022/03/12 06:53:25;;;;;;;0.30;0.30;;;5.90;90.10;;;;;;5056332;28;20132;-89
2022/03/12 06:55:51;;;;;;;1.65;1.50;;;6.00;90.40;;;;;;5040321;28;20105;-89
2022/03/12 06:58:18;;;;;;;0.40;0.40;;;5.90;90.50;;;;;;5023283;28;20064;-89
2022/03/12 07:00:43;;;;;;;0.65;0.57;;;6.00;90.80;;;;;;5023529;28;20037;-89
2022/03/12 07:03:09;;;;;;;3.67;1.65;;;6.70;90.70;;;;;;5064018;28;20041;-89
2022/03/12 07:05:35;;;;;;;0.50;0.50;;;7.20;90.90;;;;;;5043395;28;20041;-89
2022/03/12 07:08:00;;;;;;;1.15;1.05;;;6.30;90.70;;;;;;5031539;28;20384;-89
2022/03/12 07:10:26;;;;;;;0.50;0.50;;;6.40;90.60;;;;;;5022764;28;20091;-89
2022/03/12 07:12:52;;;;;;;0.80;0.80;;;6.40;90.80;;;;;;5072239;28;20060;-89
2022/03/12 07:15:21;;;;;;;0.50;0.50;;;6.50;90.10;;;;;;5022382;28;20056;-89
2022/03/12 07:17:46;;;;;;;3.97;1.90;;;8.90;91.00;;;;;;5005424;28;20037;-88
2022/03/12 07:20:14;;;;;;;0.60;0.55;;;6.60;90.60;;;;;;5010071;28;20037;-89
2022/03/12 07:22:41;;;;;;;0.60;0.60;;;6.60;90.50;;;;;;5017895;28;20037;-89
2022/03/12 07:25:08;;;;;;;0.93;0.77;;;6.80;90.40;;;;;;5009720;28;20033;-89
2022/03/12 07:27:34;;;;;;;2.42;1.75;;;6.80;90.50;;;;;;5021335;28;20402;-89
2022/03/12 07:30:00;;;;;;;0.47;0.47;;;6.90;90.40;;;;;;5009737;28;20029;-89
2022/03/12 07:32:29;;;;;;;0.30;0.30;;;7.00;90.20;;;;;;5026019;28;20063;-89
2022/03/12 07:34:55;;;;;;;2.28;1.42;;;7.00;90.20;;;;;;5024497;28;20037;-89
2022/03/12 07:37:21;;;;;;;0.40;0.40;;;7.00;89.90;;;;;;5017259;28;20075;-88
2022/03/12 07:39:47;;;;;;;0.50;0.50;;;7.10;90.20;;;;;;5009658;28;20029;-90
2022/03/12 07:42:13;;;;;;;2.33;1.45;;;7.10;90.60;;;;;;5013745;28;20048;-89
2022/03/12 07:44:39;;;;;;;1.70;1.05;;;7.20;90.20;;;;;;5029219;28;20046;-89
2022/03/12 07:47:06;;;;;;;4.35;1.40;;;7.20;90.00;;;;;;5011897;28;20042;-88
2022/03/12 07:49:31;;;;;;;0.38;0.38;;;7.30;90.10;;;;;;5010493;28;20037;-90
2022/03/12 07:51:57;;;;;;;2.10;0.95;;;7.40;90.20;;;;;;5008046;28;20509;-89
2022/03/12 07:54:23;;;;;;;1.95;1.75;;;7.40;90.30;;;;;;5014808;28;20029;-89
2022/03/12 07:56:50;;;;;;;2.15;1.40;;;7.50;90.20;;;;;;5003721;28;20072;-90
2022/03/12 07:59:16;;;;;;;1.75;0.70;;;7.60;90.10;;;;;;5026868;28;20544;-89
2022/03/12 08:01:42;;;;;;;6.35;1.15;;;7.60;90.60;;;;;;5025004;28;20034;-89
2022/03/12 08:04:07;;;;;;;0.98;0.90;;;7.70;90.20;;;;;;5031281;28;20037;-87
2022/03/12 08:06:34;;;;;;;0.68;0.68;;;7.70;90.30;;;;;;5013753;28;20025;-87
2022/03/12 08:09:00;;;;;;;0.95;0.95;;;7.80;90.30;;;;;;5005766;28;20084;-88
2022/03/12 08:11:29;;;;;;;2.35;1.42;;;7.90;90.80;;;;;;5008481;28;20060;-88
2022/03/12 08:14:03;;;;;;;2.15;1.73;;;8.40;91.30;;;;;;5025629;28;20043;-88
2022/03/12 08:16:33;;;;;;;1.65;1.45;;;8.20;90.70;;;;;;5022239;28;20095;-87
2022/03/12 08:19:04;;;;;;;4.60;2.53;;;8.40;90.80;;;;;;5034302;28;20066;-88
2022/03/12 08:21:30;;;;;;;1.75;1.45;;;8.60;91.00;;;;;;5022339;28;20037;-88
2022/03/12 08:23:58;;;;;;;1.75;1.60;;;8.70;91.00;;;;;;5006058;28;20125;-88
2022/03/12 08:26:24;;;;;;;0.57;0.57;;;9.00;91.50;;;;;;5025184;28;20033;-89
2022/03/12 08:28:50;;;;;;;1.45;1.08;;;8.80;91.00;;;;;;5041647;28;20044;-88
2022/03/12 08:31:16;;;;;;;5.25;1.75;;;9.00;90.70;;;;;;5041955;28;20037;-88
2022/03/12 08:33:43;;;;;;;1.17;0.95;;;9.00;90.60;;;;;;5039455;28;20060;-89
2022/03/12 08:36:09;;;;;;;0.85;0.70;;;9.40;91.00;;;;;;5041217;28;20037;-88
2022/03/12 08:38:35;;;;;;;0.95;0.88;;;9.10;91.20;;;;;;5034605;28;20132;-88
2022/03/12 08:41:05;;;;;;;1.13;0.95;;;9.20;91.40;;;;;;5058754;28;20037;-88
2022/03/12 08:43:32;;;;;;;1.63;1.02;;;9.50;91.70;;;;;;5038000;28;20384;-89
2022/03/12 08:45:58;;;;;;;1.50;1.05;;;9.40;91.80;;;;;;5025410;28;20500;-88
2022/03/12 08:48:27;;;;;;;1.75;1.08;;;9.50;92.00;;;;;;5045304;28;20045;-89
2022/03/12 08:50:53;;;;;;;2.95;1.70;;;9.60;92.30;;;;;;5027026;28;20038;-88
2022/03/12 08:53:21;;;;;;;17.75;6.63;;;9.70;92.50;;;;;;5042362;28;20033;-88
2022/03/12 08:55:47;;;;;;;2.97;1.55;;;10.70;93.30;;;;;;5025261;28;20042;-88
2022/03/12 08:58:13;;;;;;;5.03;2.80;;;10.00;92.60;;;;;;5035110;28;20051;-88
2022/03/12 09:00:39;;;;;;;6.35;5.57;;;10.00;92.90;;;;;;5041343;28;20080;-89
2022/03/12 09:03:05;;;;;;;5.40;2.85;;;10.10;92.90;;;;;;5041979;28;20132;-87
2022/03/12 09:05:32;;;;;;;2.80;1.92;;;10.20;93.20;;;;;;5041565;28;20052;-88
2022/03/12 09:07:58;;;;;;;2.45;1.23;;;10.30;93.80;;;;;;5026261;28;20057;-89
2022/03/12 09:10:24;;;;;;;3.10;1.55;;;10.90;94.70;;;;;;5030507;28;20402;-89
2022/03/12 09:12:50;;;;;;;5.10;2.83;;;10.50;94.70;;;;;;5026670;28;20038;-89
2022/03/12 09:15:21;;;;;;;5.40;2.60;;;10.50;94.80;;;;;;5023115;28;20037;-88
2022/03/12 09:17:46;;;;;;;5.57;2.08;;;10.60;95.00;;;;;;5018251;28;20076;-87
2022/03/12 09:20:12;;;;;;;3.03;2.28;;;10.70;95.30;;;;;;5021665;28;20036;-88
2022/03/12 09:22:39;;;;;;;3.55;2.03;;;11.00;95.20;;;;;;5027732;28;20559;-88
2022/03/12 09:25:09;;;;;;;2.60;1.90;;;10.80;94.90;;;;;;5028182;28;20044;-88
2022/03/12 09:27:36;;;;;;;4.57;2.67;;;10.90;96.10;;;;;;5015606;28;20041;-88
2022/03/12 09:30:02;;;;;;;5.85;2.08;;;11.60;95.50;;;;;;5011850;28;20041;-89
2022/03/12 09:32:28;;;;;;;2.30;1.27;;;11.00;96.00;;;;;;5019378;28;20033;-89
2022/03/12 09:34:53;;;;;;;2.63;1.60;;;11.00;95.80;;;;;;5028012;28;20648;-89
2022/03/12 09:37:19;;;;;;;4.35;2.83;;;11.10;96.10;;;;;;5015949;28;20379;-88
2022/03/12 09:39:45;;;;;;;6.20;1.88;;;11.10;95.80;;;;;;5025330;28;20094;-88
2022/03/12 09:42:10;;;;;;;3.10;1.65;;;11.10;96.20;;;;;;5007753;28;20034;-88
2022/03/12 09:44:36;;;;;;;2.47;1.58;;;11.60;96.90;;;;;;5007316;28;20490;-88
2022/03/12 09:47:02;;;;;;;5.68;2.45;;;11.20;96.80;;;;;;5007485;28;20136;-88
2022/03/12 09:49:28;;;;;;;2.50;1.63;;;11.20;97.30;;;;;;5007100;28;20034;-88
2022/03/12 09:51:54;;;;;;;9.50;3.15;;;11.20;97.00;;;;;;5006966;28;20068;-88
2022/03/12 09:54:20;;;;;;;2.40;1.50;;;11.20;97.60;;;;;;5024726;28;20041;-88
2022/03/12 09:56:48;;;;;;;5.10;2.58;;;11.30;97.60;;;;;;5017680;28;20466;-88
2022/03/12 09:59:20;;;;;;;5.53;2.42;;;11.40;98.80;;;;;;5026637;28;20033;-89
2022/03/12 10:01:47;;;;;;;1.75;1.33;;;11.40;98.50;;;;;;5042774;28;20045;-88
2022/03/12 10:04:13;;;;;;;3.25;1.88;;;11.50;99.40;;;;;;5017787;28;20042;-88
2022/03/12 10:06:40;;;;;;;5.47;2.75;;;11.60;99.40;;;;;;4990036;28;20055;-87
2022/03/12 10:09:08;;;;;;;2.63;1.63;;;11.70;99.90;;;;;;5000048;28;20038;-88
2022/03/12 10:11:45;;;;;;;4.82;2.63;;;12.30;99.90;;;;;;5011259;28;20034;-88
2022/03/12 10:14:11;;;;;;;2.50;1.27;;;12.00;99.90;;;;;;5004528;28;20505;-88
2022/03/12 10:16:37;;;;;;;3.13;1.75;;;11.70;99.90;;;;;;5016092;28;20033;-88
2022/03/12 10:19:03;;;;;;;2.50;1.42;;;11.70;99.90;;;;;;5023851;28;20067;-88
2022/03/12 10:21:30;;;;;;;3.35;1.65;;;11.70;99.90;;;;;;5013537;28;20072;-88
2022/03/12 10:23:56;;;;;;;3.13;1.20;;;11.80;99.90;;;;;;5009993;28;20054;-88
2022/03/12 10:26:22;;;;;;;3.38;1.70;;;12.10;99.90;;;;;;4995529;28;20033;-88
2022/03/12 10:28:48;;;;;;;4.53;2.17;;;11.90;99.90;;;;;;5004694;28;20042;-88
2022/03/12 10:31:15;;;;;;;2.65;1.38;;;11.90;99.90;;;;;;5023514;28;20036;-88
2022/03/12 10:33:41;;;;;;;2.17;1.27;;;11.60;99.90;;;;;;5027635;28;20056;-89
2022/03/12 10:36:10;;;;;;;4.35;2.13;;;12.20;99.90;;;;;;5014860;28;20503;-90
2022/03/12 10:38:46;;;;;;;5.03;2.13;;;12.80;99.90;;;;;;5014304;28;20041;-88
2022/03/12 10:41:17;;;;;;;1.98;1.40;;;12.10;99.90;;;;;;5050289;28;20037;-88
2022/03/12 10:43:53;;;;;;;2.53;1.25;;;12.90;99.90;;;;;;5024704;28;20079;-88
2022/03/12 10:46:27;;;;;;;3.45;1.85;;;12.30;99.90;;;;;;5006742;28;20075;-87
2022/03/12 10:48:57;;;;;;;3.65;1.58;;;12.20;99.90;;;;;;5001451;28;20129;-87
2022/03/12 10:51:26;;;;;;;4.25;1.85;;;12.30;99.90;;;;;;5000993;28;20029;-90
2022/03/12 10:54:07;;;;;;;4.47;1.85;;;12.30;99.70;;;;;;4999800;28;20034;-92
2022/03/12 10:56:56;;;;;;;3.33;2.22;;;12.40;99.90;;;;;;5041559;28;20060;-89
2022/03/12 10:59:26;;;;;;;1.92;1.30;;;12.40;99.60;;;;;;5030830;28;20041;-90
2022/03/12 11:01:55;;;;;;;2.25;1.15;;;12.50;99.90;;;;;;4999594;28;20037;-88
2022/03/12 11:04:27;;;;;;;1.02;0.88;;;12.60;99.90;;;;;;5018782;28;20715;-87
2022/03/12 11:06:59;;;;;;;4.03;1.63;;;12.70;99.60;;;;;;5008324;28;20044;-86
2022/03/12 11:09:36;;;;;;;3.70;1.73;;;12.70;99.40;;;;;;4996323;28;20029;-86
2022/03/12 11:12:38;;;;;;;2.80;1.73;;;12.70;99.10;;;;;;4997437;28;20514;-87
2022/03/12 11:15:16;;;;;;;1.83;1.17;;;12.70;99.10;;;;;;4997207;28;20037;-92
2022/03/12 11:17:49;;;;;;;2.05;1.13;;;12.70;98.90;;;;;;5006026;28;20046;-93
2022/03/12 11:20:28;;;;;;;1.92;1.30;;;12.80;99.10;;;;;;5012510;28;20034;-94
2022/03/12 11:23:27;;;;;;;1.73;0.82;;;12.90;99.20;;;;;;5013830;28;20046;-87
2022/03/12 11:26:06;;;;;;;3.58;1.85;;;13.00;98.90;;;;;;4992173;28;20042;-86
2022/03/12 11:28:35;;;;;;;2.33;1.27;;;13.00;98.50;;;;;;4988004;28;20050;-86
2022/03/12 11:31:04;;;;;;;4.43;2.15;;;13.10;98.70;;;;;;5025899;28;20041;-89
2022/03/12 11:33:31;;;;;;;3.72;1.75;;;13.10;98.40;;;;;;5020246;28;20049;-87
2022/03/12 11:36:02;;;;;;;6.22;1.35;;;13.10;97.90;;;;;;5009510;28;20396;-88
2022/03/12 11:38:28;;;;;;;3.00;1.45;;;13.10;98.70;;;;;;4990406;28;20077;-88
2022/03/12 11:41:24;;;;;;;3.80;2.00;;;13.10;98.40;;;;;;4997958;28;20145;-88
2022/03/12 11:43:50;;;;;;;46.50;2.30;;;13.00;98.10;;;;;;4991651;28;20217;-89
2022/03/12 11:46:16;;;;;;;3.20;1.83;;;12.90;98.00;;;;;;4985633;28;20528;-90
2022/03/12 11:48:41;;;;;;;3.00;1.05;;;13.00;98.00;;;;;;4993667;28;20045;-92
2022/03/12 11:51:23;;;;;;;2.88;1.35;;;13.00;98.30;;;;;;5003571;28;20555;-89
2022/03/12 11:53:50;;;;;;;12.40;2.47;;;13.10;98.20;;;;;;5021990;28;20052;-90
2022/03/12 11:56:16;;;;;;;0.82;0.63;;;13.10;98.10;;;;;;5009241;28;20033;-91
2022/03/12 11:58:46;;;;;;;3.05;1.55;;;13.20;99.40;;;;;;5013101;28;20042;-89
2022/03/12 12:01:22;;;;;;;3.58;1.95;;;13.30;98.80;;;;;;5027840;28;20486;-89
2022/03/12 12:03:50;;;;;;;3.70;1.80;;;13.30;98.30;;;;;;5029528;28;20045;-88
2022/03/12 12:06:15;;;;;;;0.70;0.60;;;13.20;98.40;;;;;;5013271;28;20095;-87
2022/03/12 12:08:43;;;;;;;1.00;0.90;;;13.30;98.70;;;;;;5011558;28;20050;-89
2022/03/12 12:11:08;;;;;;;3.33;1.55;;;13.40;99.10;;;;;;5002100;28;20030;-88
2022/03/12 12:13:34;;;;;;;2.92;1.13;;;13.40;98.30;;;;;;4997119;28;20422;-89
2022/03/12 12:16:00;;;;;;;3.10;1.33;;;13.40;98.90;;;;;;5013109;28;20042;-89
2022/03/12 12:18:26;;;;;;;2.70;1.35;;;13.40;97.80;;;;;;5009506;28;20174;-89
2022/03/12 12:20:52;;;;;;;2.35;1.10;;;13.40;98.80;;;;;;5024107;28;20084;-88
2022/03/12 12:23:20;;;;;;;1.25;0.93;;;13.30;97.90;;;;;;5005424;28;20044;-89
2022/03/12 12:25:46;;;;;;;4.70;2.08;;;13.30;98.40;;;;;;5029388;28;20064;-89
2022/03/12 12:28:24;;;;;;;2.10;1.52;;;13.40;97.60;;;;;;5022224;28;20052;-89
2022/03/12 12:30:53;;;;;;;6.28;1.88;;;13.40;98.20;;;;;;5015388;28;20548;-89
2022/03/12 12:33:27;;;;;;;2.90;1.50;;;13.40;98.00;;;;;;5020181;28;20037;-89
2022/03/12 12:36:08;;;;;;;1.23;0.50;;;13.40;98.50;;;;;;5031452;28;20490;-89
2022/03/12 12:38:35;;;;;;;1.95;0.73;;;13.60;98.70;;;;;;5057147;28;20049;-90
2022/03/12 12:41:03;;;;;;;2.50;1.15;;;13.70;98.50;;;;;;5018853;28;20033;-89
2022/03/12 12:43:41;;;;;;;1.83;1.20;;;13.90;98.50;;;;;;5011036;28;20044;-89
2022/03/12 12:46:14;;;;;;;6.00;1.58;;;14.00;98.40;;;;;;5008656;28;20124;-89
2022/03/12 12:48:52;;;;;;;2.08;0.95;;;14.20;97.30;;;;;;5020664;28;20105;-89
2022/03/12 12:51:23;;;;;;;0.65;0.40;;;14.30;98.60;;;;;;5017461;28;20034;-89
2022/03/12 12:53:53;;;;;;;1.20;0.90;;;14.30;96.70;;;;;;5042648;28;20026;-89
2022/03/12 12:56:33;;;;;;;0.20;0.20;;;14.20;96.90;;;;;;5012961;28;20096;-88
2022/03/12 12:58:58;;;;;;;3.67;1.48;;;14.00;97.10;;;;;;5022934;28;20041;-89